createdAt,value
2017-03-05T00:00:35.436Z,0
2017-03-05T00:01:35.449Z,0
2017-03-05T00:02:35.464Z,0
2017-03-05T00:03:35.460Z,0
2017-03-05T00:04:35.759Z,0
2017-03-05T00:05:35.666Z,0
2017-03-05T00:06:35.522Z,0
2017-03-05T00:07:36.949Z,0
2017-03-05T00:08:34.702Z,0
2017-03-05T00:09:35.840Z,0
2017-03-05T00:10:35.549Z,0
2017-03-05T00:11:35.546Z,0
2017-03-05T00:12:35.113Z,0
2017-03-05T00:13:35.563Z,0
2017-03-05T00:14:35.579Z,0
2017-03-05T00:15:35.574Z,0
2017-03-05T00:16:35.599Z,0
2017-03-05T00:17:35.533Z,0
2017-03-05T00:18:36.673Z,0
2017-03-05T00:19:35.165Z,0
2017-03-05T00:20:35.677Z,0
2017-03-05T00:21:35.610Z,0
2017-03-05T00:22:35.622Z,0
2017-03-05T00:23:35.821Z,0
2017-03-05T00:24:35.577Z,0
2017-03-05T00:25:35.642Z,0
2017-03-05T00:26:35.198Z,0
2017-03-05T00:27:35.603Z,0
2017-03-05T00:28:35.215Z,0
2017-03-05T00:29:36.607Z,0
2017-03-05T00:30:35.216Z,0
2017-03-05T00:31:35.679Z,0
2017-03-05T00:32:35.640Z,0
2017-03-05T00:33:36.791Z,0
2017-03-05T00:34:35.686Z,0
2017-03-05T00:35:35.699Z,0
2017-03-05T00:36:35.668Z,0
2017-03-05T00:37:35.309Z,0
2017-03-05T00:38:35.264Z,0
2017-03-05T00:39:35.706Z,0
2017-03-05T00:40:36.596Z,0
2017-03-05T00:41:35.285Z,0
2017-03-05T00:42:35.240Z,0
2017-03-05T00:43:35.800Z,0
2017-03-05T00:44:36.547Z,0
2017-03-05T00:45:35.409Z,0
2017-03-05T00:46:35.773Z,0
2017-03-05T00:47:35.333Z,0
2017-03-05T00:48:35.337Z,0
2017-03-05T00:49:35.742Z,0
2017-03-05T00:50:35.741Z,0
2017-03-05T00:51:36.009Z,0
2017-03-05T00:52:35.405Z,0
2017-03-05T00:53:35.774Z,0
2017-03-05T00:54:35.786Z,0
2017-03-05T00:55:36.467Z,0
2017-03-05T00:56:35.786Z,0
2017-03-05T00:57:35.881Z,0
2017-03-05T00:58:35.472Z,0
2017-03-05T00:59:35.844Z,0
2017-03-05T01:00:35.469Z,0
2017-03-05T01:01:35.810Z,0
2017-03-05T01:02:35.825Z,0
2017-03-05T01:03:35.824Z,0
2017-03-05T01:04:37.373Z,0
2017-03-05T01:05:35.844Z,0
2017-03-05T01:06:35.842Z,0
2017-03-05T01:07:35.858Z,0
2017-03-05T01:08:35.497Z,0
2017-03-05T01:09:35.856Z,0
2017-03-05T01:10:35.860Z,0
2017-03-05T01:11:35.871Z,0
2017-03-05T01:12:35.872Z,0
2017-03-05T01:13:35.536Z,0
2017-03-05T01:14:35.954Z,0
2017-03-05T01:15:37.030Z,0
2017-03-05T01:16:35.492Z,0
2017-03-05T01:17:35.957Z,0
2017-03-05T01:18:35.916Z,0
2017-03-05T01:19:37.022Z,0
2017-03-05T01:20:36.015Z,0
2017-03-05T01:21:35.135Z,0
2017-03-05T01:22:36.048Z,0
2017-03-05T01:23:35.992Z,0
2017-03-05T01:24:35.940Z,0
2017-03-05T01:25:35.624Z,0
2017-03-05T01:26:37.104Z,0
2017-03-05T01:27:35.578Z,0
2017-03-05T01:28:35.979Z,0
2017-03-05T01:29:36.121Z,0
2017-03-05T01:30:37.179Z,0
2017-03-05T01:31:35.609Z,0
2017-03-05T01:32:36.092Z,0
2017-03-05T01:33:36.062Z,0
2017-03-05T01:34:35.656Z,0
2017-03-05T01:35:36.013Z,0
2017-03-05T01:36:35.623Z,0
2017-03-05T01:37:36.932Z,0
2017-03-05T01:38:35.687Z,0
2017-03-05T01:39:35.698Z,0
2017-03-05T01:40:36.046Z,0
2017-03-05T01:41:36.908Z,0
2017-03-05T01:42:36.079Z,0
2017-03-05T01:43:36.119Z,0
2017-03-05T01:44:35.728Z,0
2017-03-05T01:45:36.144Z,0
2017-03-05T01:46:36.077Z,0
2017-03-05T01:47:36.133Z,0
2017-03-05T01:48:36.159Z,0
2017-03-05T01:49:35.806Z,0
2017-03-05T01:50:35.754Z,0
2017-03-05T01:51:36.157Z,0
2017-03-05T01:52:36.959Z,0
2017-03-05T01:53:36.120Z,0
2017-03-05T01:54:35.768Z,0
2017-03-05T01:55:35.755Z,0
2017-03-05T01:56:36.240Z,0
2017-03-05T01:57:36.160Z,0
2017-03-05T01:58:36.157Z,0
2017-03-05T01:59:35.763Z,0
2017-03-05T02:00:36.228Z,0
2017-03-05T02:01:35.834Z,0
2017-03-05T02:02:35.781Z,0
2017-03-05T02:03:36.699Z,0
2017-03-05T02:04:35.785Z,0
2017-03-05T02:05:35.814Z,0
2017-03-05T02:06:35.399Z,0
2017-03-05T02:07:36.208Z,0
2017-03-05T02:08:36.255Z,0
2017-03-05T02:09:35.883Z,0
2017-03-05T02:10:35.983Z,0
2017-03-05T02:11:36.375Z,0
2017-03-05T02:12:37.207Z,0
2017-03-05T02:13:36.549Z,0
2017-03-05T02:14:36.774Z,0
2017-03-05T02:15:36.368Z,0
2017-03-05T02:16:36.265Z,0
2017-03-05T02:17:35.887Z,0
2017-03-05T02:18:35.931Z,0
2017-03-05T02:19:35.879Z,0
2017-03-05T02:20:36.332Z,0
2017-03-05T02:21:36.295Z,0
2017-03-05T02:22:35.910Z,0
2017-03-05T02:23:36.823Z,0
2017-03-05T02:24:36.300Z,0
2017-03-05T02:25:36.570Z,0
2017-03-05T02:26:35.911Z,0
2017-03-05T02:27:37.759Z,0
2017-03-05T02:28:36.343Z,0
2017-03-05T02:29:36.382Z,0
2017-03-05T02:30:35.939Z,0
2017-03-05T02:31:35.999Z,0
2017-03-05T02:32:36.356Z,0
2017-03-05T02:33:35.965Z,0
2017-03-05T02:34:36.376Z,0
2017-03-05T02:35:36.377Z,0
2017-03-05T02:36:36.377Z,0
2017-03-05T02:37:35.983Z,0
2017-03-05T02:38:37.915Z,0
2017-03-05T02:39:36.408Z,0
2017-03-05T02:40:36.460Z,0
2017-03-05T02:41:36.429Z,0
2017-03-05T02:42:36.064Z,0
2017-03-05T02:43:36.416Z,0
2017-03-05T02:44:36.485Z,0
2017-03-05T02:45:36.429Z,0
2017-03-05T02:46:36.035Z,0
2017-03-05T02:47:36.459Z,0
2017-03-05T02:48:36.514Z,0
2017-03-05T02:49:35.691Z,0
2017-03-05T02:50:36.060Z,0
2017-03-05T02:51:36.538Z,0
2017-03-05T02:52:36.471Z,0
2017-03-05T02:53:36.475Z,0
2017-03-05T02:54:35.786Z,0
2017-03-05T02:55:36.492Z,0
2017-03-05T02:56:36.552Z,0
2017-03-05T02:57:36.517Z,0
2017-03-05T02:58:36.104Z,0
2017-03-05T02:59:36.543Z,0
2017-03-05T03:00:37.481Z,0
2017-03-05T03:01:36.539Z,0
2017-03-05T03:02:36.524Z,0
2017-03-05T03:03:36.537Z,0
2017-03-05T03:04:36.539Z,0
2017-03-05T03:05:36.607Z,0
2017-03-05T03:06:36.156Z,0
2017-03-05T03:07:36.206Z,0
2017-03-05T03:08:36.567Z,0
2017-03-05T03:09:36.227Z,0
2017-03-05T03:10:36.640Z,0
2017-03-05T03:11:37.132Z,0
2017-03-05T03:12:36.639Z,0
2017-03-05T03:13:36.658Z,0
2017-03-05T03:14:36.679Z,0
2017-03-05T03:15:36.617Z,0
2017-03-05T03:16:36.625Z,0
2017-03-05T03:17:36.631Z,0
2017-03-05T03:18:36.631Z,0
2017-03-05T03:19:36.727Z,0
2017-03-05T03:20:36.241Z,0
2017-03-05T03:21:36.702Z,0
2017-03-05T03:22:39.361Z,0
2017-03-05T03:23:36.267Z,0
2017-03-05T03:24:36.266Z,0
2017-03-05T03:25:36.353Z,0
2017-03-05T03:26:36.674Z,0
2017-03-05T03:27:36.698Z,0
2017-03-05T03:28:36.744Z,0
2017-03-05T03:29:36.773Z,0
2017-03-05T03:30:36.309Z,0
2017-03-05T03:31:36.751Z,0
2017-03-05T03:32:36.741Z,0
2017-03-05T03:33:36.911Z,0
2017-03-05T03:34:36.046Z,0
2017-03-05T03:35:38.159Z,0
2017-03-05T03:36:36.723Z,0
2017-03-05T03:37:36.750Z,0
2017-03-05T03:38:36.749Z,0
2017-03-05T03:39:36.812Z,0
2017-03-05T03:40:36.810Z,0
2017-03-05T03:41:36.766Z,0
2017-03-05T03:42:36.773Z,0
2017-03-05T03:43:36.780Z,0
2017-03-05T03:44:36.878Z,0
2017-03-05T03:45:36.881Z,0
2017-03-05T03:46:37.899Z,0
2017-03-05T03:47:36.871Z,0
2017-03-05T03:48:36.654Z,0
2017-03-05T03:49:36.863Z,0
2017-03-05T03:50:38.564Z,0
2017-03-05T03:51:36.482Z,0
2017-03-05T03:52:36.832Z,0
2017-03-05T03:53:36.846Z,0
2017-03-05T03:54:36.935Z,0
2017-03-05T03:55:36.453Z,0
2017-03-05T03:56:36.900Z,0
2017-03-05T03:57:37.859Z,0
2017-03-05T03:58:36.860Z,0
2017-03-05T03:59:36.574Z,0
2017-03-05T04:00:36.492Z,0
2017-03-05T04:01:36.479Z,0
2017-03-05T04:02:36.897Z,0
2017-03-05T04:03:36.888Z,0
2017-03-05T04:04:36.949Z,0
2017-03-05T04:05:36.999Z,0
2017-03-05T04:06:36.134Z,0
2017-03-05T04:07:36.915Z,0
2017-03-05T04:08:37.670Z,0
2017-03-05T04:09:36.975Z,0
2017-03-05T04:10:36.581Z,0
2017-03-05T04:11:36.984Z,0
2017-03-05T04:12:36.156Z,0
2017-03-05T04:13:36.960Z,0
2017-03-05T04:14:36.956Z,0
2017-03-05T04:15:37.067Z,0
2017-03-05T04:16:36.579Z,0
2017-03-05T04:17:36.973Z,0
2017-03-05T04:18:36.989Z,0
2017-03-05T04:19:38.529Z,0
2017-03-05T04:20:37.034Z,0
2017-03-05T04:21:36.631Z,0
2017-03-05T04:22:36.659Z,0
2017-03-05T04:23:37.026Z,0
2017-03-05T04:24:37.076Z,0
2017-03-05T04:25:37.027Z,0
2017-03-05T04:26:36.712Z,0
2017-03-05T04:27:37.039Z,0
2017-03-05T04:28:37.029Z,0
2017-03-05T04:29:36.651Z,0
2017-03-05T04:30:37.658Z,0
2017-03-05T04:31:37.053Z,0
2017-03-05T04:32:37.077Z,0
2017-03-05T04:33:37.124Z,0
2017-03-05T04:34:37.582Z,0
2017-03-05T04:35:37.156Z,0
2017-03-05T04:36:37.830Z,0
2017-03-05T04:37:36.689Z,0
2017-03-05T04:38:37.095Z,0
2017-03-05T04:39:36.365Z,0
2017-03-05T04:40:37.100Z,0
2017-03-05T04:41:37.212Z,0
2017-03-05T04:42:36.773Z,0
2017-03-05T04:43:38.406Z,0
2017-03-05T04:44:36.777Z,0
2017-03-05T04:45:37.246Z,0
2017-03-05T04:46:37.191Z,0
2017-03-05T04:47:36.798Z,0
2017-03-05T04:48:36.760Z,0
2017-03-05T04:49:37.211Z,0
2017-03-05T04:50:36.873Z,0
2017-03-05T04:51:37.237Z,0
2017-03-05T04:52:37.251Z,0
2017-03-05T04:53:37.297Z,0
2017-03-05T04:54:38.371Z,0
2017-03-05T04:55:37.257Z,0
2017-03-05T04:56:37.253Z,0
2017-03-05T04:57:36.924Z,0
2017-03-05T04:58:36.881Z,0
2017-03-05T04:59:37.332Z,0
2017-03-05T05:00:37.287Z,0
2017-03-05T05:01:37.280Z,0
2017-03-05T05:02:37.247Z,0
2017-03-05T05:03:37.289Z,0
2017-03-05T05:04:37.345Z,0
2017-03-05T05:05:38.519Z,0
2017-03-05T05:06:37.272Z,0
2017-03-05T05:07:37.269Z,0
2017-03-05T05:08:37.375Z,0
2017-03-05T05:09:37.330Z,0
2017-03-05T05:10:37.394Z,0
2017-03-05T05:11:37.376Z,0
2017-03-05T05:12:37.347Z,0
2017-03-05T05:13:36.936Z,0
2017-03-05T05:14:37.423Z,0
2017-03-05T05:15:37.319Z,0
2017-03-05T05:16:38.280Z,0
2017-03-05T05:17:37.342Z,0
2017-03-05T05:18:36.905Z,0
2017-03-05T05:19:38.442Z,0
2017-03-05T05:20:38.248Z,0
2017-03-05T05:21:37.397Z,0
2017-03-05T05:22:37.467Z,0
2017-03-05T05:23:37.362Z,0
2017-03-05T05:24:37.413Z,0
2017-03-05T05:25:37.066Z,0
2017-03-05T05:26:37.437Z,0
2017-03-05T05:27:37.982Z,0
2017-03-05T05:28:37.049Z,0
2017-03-05T05:29:37.459Z,0
2017-03-05T05:30:37.015Z,0
2017-03-05T05:31:38.157Z,0
2017-03-05T05:32:37.472Z,0
2017-03-05T05:33:37.768Z,0
2017-03-05T05:34:37.087Z,0
2017-03-05T05:35:37.583Z,0
2017-03-05T05:36:37.589Z,0
2017-03-05T05:37:37.488Z,0
2017-03-05T05:38:37.897Z,0
2017-03-05T05:39:37.505Z,0
2017-03-05T05:40:39.781Z,0
2017-03-05T05:41:37.532Z,0
2017-03-05T05:42:37.893Z,0
2017-03-05T05:43:37.493Z,4
2017-03-05T05:44:37.481Z,4
2017-03-05T05:45:37.207Z,0
2017-03-05T05:46:37.215Z,4
2017-03-05T05:47:36.760Z,4
2017-03-05T05:48:37.503Z,4
2017-03-05T05:49:37.519Z,0
2017-03-05T05:50:37.170Z,4
2017-03-05T05:51:38.824Z,4
2017-03-05T05:52:37.587Z,4
2017-03-05T05:53:37.696Z,4
2017-03-05T05:54:37.657Z,4
2017-03-05T05:55:37.696Z,4
2017-03-05T05:56:37.615Z,4
2017-03-05T05:57:37.615Z,4
2017-03-05T05:58:37.611Z,4
2017-03-05T05:59:37.581Z,8
2017-03-05T06:00:37.291Z,8
2017-03-05T06:01:37.579Z,8
2017-03-05T06:02:38.696Z,8
2017-03-05T06:03:37.653Z,8
2017-03-05T06:04:37.612Z,8
2017-03-05T06:05:37.363Z,8
2017-03-05T06:06:37.624Z,12
2017-03-05T06:07:37.267Z,12
2017-03-05T06:08:36.886Z,12
2017-03-05T06:09:37.268Z,20
2017-03-05T06:10:37.758Z,16
2017-03-05T06:11:37.770Z,20
2017-03-05T06:12:37.693Z,24
2017-03-05T06:13:38.755Z,24
2017-03-05T06:14:37.274Z,20
2017-03-05T06:15:37.720Z,16
2017-03-05T06:16:38.039Z,20
2017-03-05T06:17:38.279Z,20
2017-03-05T06:18:37.746Z,20
2017-03-05T06:19:37.788Z,24
2017-03-05T06:20:36.915Z,24
2017-03-05T06:21:37.337Z,24
2017-03-05T06:22:37.311Z,28
2017-03-05T06:23:37.776Z,28
2017-03-05T06:24:38.422Z,36
2017-03-05T06:25:37.486Z,36
2017-03-05T06:26:37.819Z,40
2017-03-05T06:27:37.835Z,40
2017-03-05T06:28:38.555Z,44
2017-03-05T06:29:37.398Z,48
2017-03-05T06:30:37.871Z,48
2017-03-05T06:31:37.386Z,48
2017-03-05T06:32:37.375Z,48
2017-03-05T06:33:37.972Z,60
2017-03-05T06:34:37.800Z,72
2017-03-05T06:35:37.837Z,84
2017-03-05T06:36:37.450Z,96
2017-03-05T06:37:37.463Z,84
2017-03-05T06:38:37.169Z,76
2017-03-05T06:39:38.423Z,60
2017-03-05T06:40:37.825Z,56
2017-03-05T06:41:37.921Z,60
2017-03-05T06:42:37.429Z,60
2017-03-05T06:43:37.902Z,64
2017-03-05T06:44:37.834Z,68
2017-03-05T06:45:37.906Z,76
2017-03-05T06:46:37.845Z,88
2017-03-05T06:47:37.960Z,96
2017-03-05T06:48:39.229Z,120
2017-03-05T06:49:37.464Z,136
2017-03-05T06:50:38.123Z,160
2017-03-05T06:51:37.130Z,132
2017-03-05T06:52:37.945Z,124
2017-03-05T06:53:37.902Z,116
2017-03-05T06:54:37.544Z,104
2017-03-05T06:55:37.954Z,100
2017-03-05T06:56:37.956Z,112
2017-03-05T06:57:37.987Z,128
2017-03-05T06:58:37.966Z,144
2017-03-05T06:59:39.616Z,192
2017-03-05T07:00:38.048Z,248
2017-03-05T07:01:37.691Z,328
2017-03-05T07:02:37.953Z,412
2017-03-05T07:03:38.782Z,420
2017-03-05T07:04:37.968Z,412
2017-03-05T07:05:38.014Z,368
2017-03-05T07:06:38.042Z,336
2017-03-05T07:07:37.871Z,328
2017-03-05T07:08:37.643Z,344
2017-03-05T07:09:38.055Z,344
2017-03-05T07:10:39.148Z,340
2017-03-05T07:11:37.762Z,328
2017-03-05T07:12:38.063Z,360
2017-03-05T07:13:37.709Z,420
2017-03-05T07:14:39.185Z,488
2017-03-05T07:15:37.633Z,568
2017-03-05T07:16:38.104Z,568
2017-03-05T07:17:38.083Z,540
2017-03-05T07:18:38.095Z,500
2017-03-05T07:19:38.220Z,428
2017-03-05T07:20:37.711Z,400
2017-03-05T07:21:37.666Z,432
2017-03-05T07:22:38.131Z,444
2017-03-05T07:23:37.684Z,452
2017-03-05T07:24:38.536Z,508
2017-03-05T07:25:39.204Z,688
2017-03-05T07:26:38.098Z,840
2017-03-05T07:27:37.715Z,960
2017-03-05T07:28:38.152Z,976
2017-03-05T07:29:37.726Z,932
2017-03-05T07:30:38.215Z,852
2017-03-05T07:31:38.223Z,764
2017-03-05T07:32:38.171Z,656
2017-03-05T07:33:37.395Z,612
2017-03-05T07:34:37.787Z,620
2017-03-05T07:35:38.197Z,688
2017-03-05T07:36:38.658Z,656
2017-03-05T07:37:38.258Z,728
2017-03-05T07:38:40.023Z,800
2017-03-05T07:39:37.896Z,744
2017-03-05T07:40:38.239Z,720
2017-03-05T07:41:38.294Z,752
2017-03-05T07:42:38.299Z,840
2017-03-05T07:43:38.234Z,896
2017-03-05T07:44:38.295Z,924
2017-03-05T07:45:39.146Z,944
2017-03-05T07:46:37.524Z,1028
2017-03-05T07:47:38.867Z,1132
2017-03-05T07:48:38.331Z,1152
2017-03-05T07:49:39.261Z,1120
2017-03-05T07:50:38.243Z,1060
2017-03-05T07:51:38.254Z,1008
2017-03-05T07:52:37.853Z,992
2017-03-05T07:53:38.010Z,980
2017-03-05T07:54:37.922Z,964
2017-03-05T07:55:38.329Z,972
2017-03-05T07:56:39.096Z,964
2017-03-05T07:57:38.430Z,968
2017-03-05T07:58:38.352Z,976
2017-03-05T07:59:38.005Z,1000
2017-03-05T08:00:39.585Z,1064
2017-03-05T08:01:37.915Z,1176
2017-03-05T08:02:38.010Z,1264
2017-03-05T08:03:38.617Z,1372
2017-03-05T08:04:38.426Z,1424
2017-03-05T08:05:37.998Z,1436
2017-03-05T08:06:38.483Z,1524
2017-03-05T08:07:38.348Z,1608
2017-03-05T08:08:38.344Z,2004
2017-03-05T08:09:38.453Z,2436
2017-03-05T08:10:37.959Z,2672
2017-03-05T08:11:39.519Z,8264
2017-03-05T08:12:38.371Z,8832
2017-03-05T08:13:38.077Z,8880
2017-03-05T08:14:38.480Z,6340
2017-03-05T08:15:38.441Z,1408
2017-03-05T08:16:38.151Z,8968
2017-03-05T08:17:38.226Z,8928
2017-03-05T08:18:38.066Z,8836
2017-03-05T08:19:38.430Z,1548
2017-03-05T08:20:38.550Z,9716
2017-03-05T08:21:38.096Z,10328
2017-03-05T08:22:39.327Z,10344
2017-03-05T08:23:38.678Z,10424
2017-03-05T08:24:38.584Z,10388
2017-03-05T08:25:37.780Z,9812
2017-03-05T08:26:38.601Z,5196
2017-03-05T08:27:38.177Z,1072
2017-03-05T08:28:38.565Z,1940
2017-03-05T08:29:38.167Z,1532
2017-03-05T08:30:38.530Z,2368
2017-03-05T08:31:38.190Z,772
2017-03-05T08:32:38.647Z,620
2017-03-05T08:33:39.254Z,980
2017-03-05T08:34:38.214Z,1004
2017-03-05T08:35:38.872Z,904
2017-03-05T08:36:38.654Z,1012
2017-03-05T08:37:38.346Z,1132
2017-03-05T08:38:38.608Z,1460
2017-03-05T08:39:38.237Z,880
2017-03-05T08:40:38.312Z,956
2017-03-05T08:41:38.218Z,1440
2017-03-05T08:42:39.674Z,1620
2017-03-05T08:43:38.689Z,1620
2017-03-05T08:44:38.810Z,2332
2017-03-05T08:45:38.350Z,3408
2017-03-05T08:46:40.153Z,1680
2017-03-05T08:47:38.464Z,5624
2017-03-05T08:48:38.722Z,14368
2017-03-05T08:49:37.924Z,5708
2017-03-05T08:50:38.342Z,948
2017-03-05T08:51:38.807Z,904
2017-03-05T08:52:38.760Z,844
2017-03-05T08:53:38.356Z,1268
2017-03-05T08:54:38.777Z,15040
2017-03-05T08:55:38.735Z,3368
2017-03-05T08:56:38.473Z,1384
2017-03-05T08:57:39.953Z,16704
2017-03-05T08:58:38.877Z,16512
2017-03-05T08:59:38.806Z,15168
2017-03-05T09:00:38.817Z,4608
2017-03-05T09:01:38.922Z,1264
2017-03-05T09:02:38.493Z,15840
2017-03-05T09:03:38.840Z,16320
2017-03-05T09:04:38.418Z,5216
2017-03-05T09:05:38.862Z,14976
2017-03-05T09:06:38.928Z,1316
2017-03-05T09:07:38.830Z,17312
2017-03-05T09:08:39.649Z,5904
2017-03-05T09:09:38.911Z,1440
2017-03-05T09:10:38.936Z,16576
2017-03-05T09:11:38.859Z,17280
2017-03-05T09:12:38.882Z,17376
2017-03-05T09:13:38.987Z,15136
2017-03-05T09:14:53.986Z,16384
2017-03-05T09:15:38.650Z,11516
2017-03-05T09:16:38.618Z,6020
2017-03-05T09:17:39.019Z,17696
2017-03-05T09:18:38.952Z,15200
2017-03-05T09:19:40.119Z,16032
2017-03-05T09:20:39.057Z,17152
2017-03-05T09:21:39.296Z,9528
2017-03-05T09:22:39.082Z,15936
2017-03-05T09:23:38.641Z,15744
2017-03-05T09:24:38.998Z,11532
2017-03-05T09:25:38.672Z,17472
2017-03-05T09:26:39.028Z,13152
2017-03-05T09:27:38.704Z,17792
2017-03-05T09:28:39.043Z,17952
2017-03-05T09:29:39.147Z,17568
2017-03-05T09:30:39.677Z,17120
2017-03-05T09:31:39.155Z,15488
2017-03-05T09:32:39.406Z,9340
2017-03-05T09:33:38.755Z,3536
2017-03-05T09:34:39.121Z,2324
2017-03-05T09:35:38.770Z,2224
2017-03-05T09:36:39.243Z,2116
2017-03-05T09:37:38.859Z,2072
2017-03-05T09:38:39.201Z,2052
2017-03-05T09:39:39.266Z,2032
2017-03-05T09:40:39.223Z,1968
2017-03-05T09:41:39.834Z,2152
2017-03-05T09:42:39.261Z,1928
2017-03-05T09:43:38.813Z,1900
2017-03-05T09:44:39.353Z,1864
2017-03-05T09:45:39.259Z,1872
2017-03-05T09:46:39.269Z,1848
2017-03-05T09:47:38.896Z,1856
2017-03-05T09:48:39.288Z,1832
2017-03-05T09:49:39.010Z,1824
2017-03-05T09:50:38.916Z,1844
2017-03-05T09:51:40.066Z,1792
2017-03-05T09:52:39.270Z,1804
2017-03-05T09:53:39.325Z,1752
2017-03-05T09:54:38.954Z,1844
2017-03-05T09:55:39.357Z,1728
2017-03-05T09:56:38.910Z,1756
2017-03-05T09:57:39.608Z,1700
2017-03-05T09:58:39.419Z,1588
2017-03-05T09:59:40.341Z,1648
2017-03-05T10:00:39.027Z,1672
2017-03-05T10:01:39.356Z,1700
2017-03-05T10:02:39.404Z,1716
2017-03-05T10:03:39.667Z,1704
2017-03-05T10:04:39.357Z,1720
2017-03-05T10:05:40.058Z,1700
2017-03-05T10:06:39.078Z,1672
2017-03-05T10:07:39.579Z,1644
2017-03-05T10:08:39.490Z,1668
2017-03-05T10:09:39.394Z,1672
2017-03-05T10:10:39.449Z,1660
2017-03-05T10:11:39.470Z,1636
2017-03-05T10:12:39.461Z,1624
2017-03-05T10:13:39.072Z,1576
2017-03-05T10:14:39.723Z,1560
2017-03-05T10:15:39.088Z,1536
2017-03-05T10:16:40.856Z,1536
2017-03-05T10:17:39.496Z,1532
2017-03-05T10:18:40.550Z,1560
2017-03-05T10:19:39.458Z,1592
2017-03-05T10:20:39.511Z,1568
2017-03-05T10:21:39.079Z,932
2017-03-05T10:22:39.133Z,1696
2017-03-05T10:23:39.538Z,1620
2017-03-05T10:24:39.656Z,1512
2017-03-05T10:25:39.605Z,1628
2017-03-05T10:26:39.118Z,1632
2017-03-05T10:27:40.781Z,880
2017-03-05T10:28:39.214Z,1588
2017-03-05T10:29:39.594Z,1544
2017-03-05T10:30:39.593Z,1544
2017-03-05T10:31:39.186Z,1520
2017-03-05T10:32:39.658Z,872
2017-03-05T10:33:39.574Z,896
2017-03-05T10:34:39.625Z,1212
2017-03-05T10:35:39.689Z,1448
2017-03-05T10:36:39.669Z,1440
2017-03-05T10:37:39.276Z,1448
2017-03-05T10:38:40.635Z,1412
2017-03-05T10:39:39.600Z,1444
2017-03-05T10:40:39.654Z,1056
2017-03-05T10:41:39.237Z,1536
2017-03-05T10:42:39.758Z,1368
2017-03-05T10:43:39.216Z,1624
2017-03-05T10:44:38.836Z,1136
2017-03-05T10:45:39.730Z,1780
2017-03-05T10:46:39.657Z,1216
2017-03-05T10:47:39.744Z,1596
2017-03-05T10:48:39.651Z,1776
2017-03-05T10:49:40.419Z,1800
2017-03-05T10:50:39.269Z,1808
2017-03-05T10:51:39.731Z,1828
2017-03-05T10:52:39.780Z,1840
2017-03-05T10:53:40.541Z,1808
2017-03-05T10:54:39.750Z,1456
2017-03-05T10:55:39.803Z,1436
2017-03-05T10:56:39.300Z,1164
2017-03-05T10:57:39.705Z,1448
2017-03-05T10:58:39.361Z,1116
2017-03-05T10:59:39.425Z,1096
2017-03-05T11:00:40.492Z,1156
2017-03-05T11:01:39.744Z,1088
2017-03-05T11:02:39.798Z,1172
2017-03-05T11:03:39.843Z,1216
2017-03-05T11:04:40.660Z,1656
2017-03-05T11:05:39.407Z,1620
2017-03-05T11:06:39.867Z,1208
2017-03-05T11:07:39.523Z,1128
2017-03-05T11:08:39.822Z,1620
2017-03-05T11:09:39.881Z,1740
2017-03-05T11:10:40.259Z,1328
2017-03-05T11:11:40.359Z,1360
2017-03-05T11:12:39.516Z,1516
2017-03-05T11:13:39.869Z,1744
2017-03-05T11:14:39.881Z,1676
2017-03-05T11:15:40.428Z,1640
2017-03-05T11:16:39.844Z,1228
2017-03-05T11:17:40.190Z,1004
2017-03-05T11:18:39.885Z,1048
2017-03-05T11:19:39.449Z,1020
2017-03-05T11:20:40.107Z,1088
2017-03-05T11:21:39.862Z,1128
2017-03-05T11:22:40.023Z,1308
2017-03-05T11:23:39.936Z,1268
2017-03-05T11:24:39.876Z,1208
2017-03-05T11:25:39.930Z,1144
2017-03-05T11:26:40.613Z,1120
2017-03-05T11:27:39.205Z,1472
2017-03-05T11:28:39.600Z,1072
2017-03-05T11:29:39.657Z,1072
2017-03-05T11:30:39.927Z,1084
2017-03-05T11:31:39.981Z,1068
2017-03-05T11:32:40.087Z,1516
2017-03-05T11:33:39.551Z,1256
2017-03-05T11:34:40.289Z,1304
2017-03-05T11:35:41.580Z,1444
2017-03-05T11:36:40.023Z,1220
2017-03-05T11:37:40.376Z,1096
2017-03-05T11:38:39.986Z,1068
2017-03-05T11:39:40.118Z,1040
2017-03-05T11:40:39.688Z,1100
2017-03-05T11:41:40.187Z,1104
2017-03-05T11:42:39.993Z,1180
2017-03-05T11:43:40.100Z,1560
2017-03-05T11:44:40.017Z,1376
2017-03-05T11:45:40.157Z,1264
2017-03-05T11:46:39.677Z,1336
2017-03-05T11:47:40.092Z,1324
2017-03-05T11:48:40.231Z,1416
2017-03-05T11:49:40.199Z,1420
2017-03-05T11:50:41.095Z,1416
2017-03-05T11:51:39.645Z,1252
2017-03-05T11:52:40.126Z,1136
2017-03-05T11:53:39.719Z,1104
2017-03-05T11:54:40.161Z,860
2017-03-05T11:55:40.173Z,856
2017-03-05T11:56:40.137Z,848
2017-03-05T11:57:41.421Z,884
2017-03-05T11:58:40.139Z,1304
2017-03-05T11:59:40.162Z,1288
2017-03-05T12:00:39.822Z,1336
2017-03-05T12:01:41.308Z,1192
2017-03-05T12:02:39.338Z,1112
2017-03-05T12:03:40.258Z,1004
2017-03-05T12:04:40.129Z,1072
2017-03-05T12:05:39.835Z,1072
2017-03-05T12:06:40.240Z,1072
2017-03-05T12:07:40.198Z,984
2017-03-05T12:08:40.504Z,1120
2017-03-05T12:09:40.266Z,1376
2017-03-05T12:10:40.323Z,1412
2017-03-05T12:11:40.165Z,1308
2017-03-05T12:12:41.051Z,1104
2017-03-05T12:13:40.242Z,1292
2017-03-05T12:14:39.894Z,976
2017-03-05T12:15:39.975Z,916
2017-03-05T12:16:40.318Z,992
2017-03-05T12:17:40.367Z,1036
2017-03-05T12:18:40.223Z,780
2017-03-05T12:19:40.247Z,828
2017-03-05T12:20:39.890Z,852
2017-03-05T12:21:39.942Z,880
2017-03-05T12:22:40.352Z,972
2017-03-05T12:23:40.701Z,968
2017-03-05T12:24:39.958Z,1176
2017-03-05T12:25:40.263Z,1172
2017-03-05T12:26:39.524Z,1148
2017-03-05T12:27:40.376Z,920
2017-03-05T12:28:40.397Z,1156
2017-03-05T12:29:40.397Z,872
2017-03-05T12:30:39.986Z,876
2017-03-05T12:31:40.304Z,920
2017-03-05T12:32:40.869Z,1048
2017-03-05T12:33:40.404Z,988
2017-03-05T12:34:40.759Z,916
2017-03-05T12:35:40.367Z,924
2017-03-05T12:36:40.064Z,892
2017-03-05T12:37:40.401Z,876
2017-03-05T12:38:40.395Z,836
2017-03-05T12:39:40.499Z,848
2017-03-05T12:40:40.358Z,844
2017-03-05T12:41:40.373Z,788
2017-03-05T12:42:40.027Z,744
2017-03-05T12:43:40.994Z,788
2017-03-05T12:44:40.438Z,760
2017-03-05T12:45:40.775Z,776
2017-03-05T12:46:40.387Z,628
2017-03-05T12:47:40.446Z,640
2017-03-05T12:48:40.395Z,720
2017-03-05T12:49:40.455Z,656
2017-03-05T12:50:40.509Z,660
2017-03-05T12:51:40.420Z,684
2017-03-05T12:52:40.432Z,816
2017-03-05T12:53:40.176Z,708
2017-03-05T12:54:40.483Z,664
2017-03-05T12:55:40.085Z,664
2017-03-05T12:56:40.992Z,688
2017-03-05T12:57:40.504Z,688
2017-03-05T12:58:40.862Z,736
2017-03-05T12:59:40.467Z,812
2017-03-05T13:00:40.522Z,884
2017-03-05T13:01:40.092Z,976
2017-03-05T13:02:40.131Z,1032
2017-03-05T13:03:40.633Z,956
2017-03-05T13:04:40.548Z,1012
2017-03-05T13:05:39.814Z,1084
2017-03-05T13:06:40.597Z,1036
2017-03-05T13:07:40.855Z,940
2017-03-05T13:08:40.582Z,796
2017-03-05T13:09:42.106Z,736
2017-03-05T13:10:40.639Z,780
2017-03-05T13:11:40.530Z,840
2017-03-05T13:12:40.755Z,852
2017-03-05T13:13:40.143Z,904
2017-03-05T13:14:40.552Z,860
2017-03-05T13:15:40.704Z,860
2017-03-05T13:16:40.573Z,872
2017-03-05T13:17:40.866Z,672
2017-03-05T13:18:40.478Z,1552
2017-03-05T13:19:40.632Z,2492
2017-03-05T13:20:42.255Z,3796
2017-03-05T13:21:39.991Z,2316
2017-03-05T13:22:41.029Z,1776
2017-03-05T13:23:40.597Z,3868
2017-03-05T13:24:40.705Z,760
2017-03-05T13:25:40.664Z,972
2017-03-05T13:26:40.726Z,11612
2017-03-05T13:27:40.690Z,11460
2017-03-05T13:28:40.684Z,3832
2017-03-05T13:29:40.759Z,2056
2017-03-05T13:30:40.265Z,2648
2017-03-05T13:31:40.816Z,924
2017-03-05T13:32:40.322Z,6244
2017-03-05T13:33:41.366Z,2312
2017-03-05T13:34:40.693Z,7560
2017-03-05T13:35:40.759Z,4704
2017-03-05T13:36:40.744Z,680
2017-03-05T13:37:40.698Z,1152
2017-03-05T13:38:40.765Z,664
2017-03-05T13:39:40.761Z,900
2017-03-05T13:40:41.270Z,1704
2017-03-05T13:41:40.330Z,6260
2017-03-05T13:42:40.401Z,664
2017-03-05T13:43:40.412Z,660
2017-03-05T13:44:41.437Z,600
2017-03-05T13:45:40.407Z,600
2017-03-05T13:46:40.812Z,552
2017-03-05T13:47:40.769Z,568
2017-03-05T13:48:40.782Z,880
2017-03-05T13:49:40.802Z,592
2017-03-05T13:50:40.435Z,596
2017-03-05T13:51:40.853Z,516
2017-03-05T13:52:40.853Z,584
2017-03-05T13:53:42.401Z,656
2017-03-05T13:54:40.860Z,728
2017-03-05T13:55:41.107Z,620
2017-03-05T13:56:40.895Z,552
2017-03-05T13:57:40.880Z,524
2017-03-05T13:58:40.830Z,516
2017-03-05T13:59:40.922Z,544
2017-03-05T14:00:40.491Z,548
2017-03-05T14:01:40.960Z,540
2017-03-05T14:02:40.074Z,540